Главная страница
METAR-TAF:

METAR-TAF

Аэропорты :

Тбилиси, Грузия

широта: 41-40-09N, долгота: 044-57-17E, высота над уровнем моря: 495 м

Текущие метеонаблюдения

Эта сводка был подготовлена 17 минут назад, в 17:30 UTC
Ветер 23 Узел от западно-северо-западный с порывами до 34 Узел
Температура 6°C
Влажность 56%
Давление 1021 hPa
Видимость 10 км и более
Нет облачности ниже 1500 м, и нет кучево-дождевой облачности

METAR: UGTB 281730Z 30023G34KT CAVOK 06/M02 Q1021 R31L/CLRD70 NOSIG

Время: 21:47 (17:47 UTC)

Прогноз

Эта сводка был подготовлена 47 минут назад, в 17:00 UTC
Прогноз действительный с 28-го 18 UTC до 29-го 18 UTC
Ветер 27 Узел от северо-западный
Видимость 10 км и более
временами
С 28-го 18 UTC до 28-го 22 UTC
Ветер 32 Узел от северо-западный с порывами до 42 Узел
временами
С 29-го 07 UTC до 29-го 15 UTC
Ветер 35 Узел от северо-западный с порывами до 45 Узел

TAF: UGTB 281700Z 2818/2918 32027KT 9999 NSC TX13/2912Z TN03/2902Z TEMPO 2818/2822 32032G42KT TEMPO 2907/2915 32035G45KT

Метеонаблюдения и прогнозы для более 4000 аэропортов (сводки METAR и TAF).

Имеющиеся станции представлены на карте желтыми и красными точками.

Чтобы увидеть название станции, наведите на нее мышь.

Затем щелкните, чтобы увидеть метеонаблюдения и метеопрогнозы.

Управление картой: чтобы увеличить масштаб, щелкните зеленые кнопки с черным крестиком; чтобы уменьшить масштаб, щелкните зеленую кнопку с тире; для просмотра соседних карт щелкайте зеленые стрелки.


METAR-TAF: